KHUA

Redstone AAF Airport

Redstone Arsnl Huntsville, Alabama, USA
METAR KHUA 181858Z 27006KT 10SM OVC013 13/10 A3016 RMK AO2A SLP215 T01310104
Observed Flight Rules
Dec-18 @ 18:58 UTC (an hour ago) Marginal Visual Flight Rules
Wind Visibility Clouds
270° at 6 knots 10 miles
  • Overcast at 1,300' AGL
Temperatures Readings
Current 13°C / 55°F
Dewpoint 10°C / 50°F
Humidity 82%
Altimeter 30.16" Hg
Pressure 1021.5 hPa
Elevation 209
METAR KHUA 181858Z 27006KT 10SM OVC013 13/10 A3016 RMK AO2A SLP215 T01310104
Observed Flight Rules
Dec-18 @ 18:58 UTC
(an hour ago)
MVFR
Wind Visibility
270° at 6 knots 10 miles
Clouds
  • Overcast at 1,300' AGL
Temperature Dewpoint
13°C / 55°F 10°C / 50°F
Humidity Altimeter Pressure
82% 30.16" Hg 1021.5 hPa